sensor_id;sensor_type;location;lat;lon;timestamp;temperature;humidity
79571;DHT22;69034;49.444;7.758;2023-08-07T00:03:14;15.70;64.90
79571;DHT22;69034;49.444;7.758;2023-08-07T00:07:18;15.70;64.90
79571;DHT22;69034;49.444;7.758;2023-08-07T00:11:19;15.70;64.80
79571;DHT22;69034;49.444;7.758;2023-08-07T00:15:20;15.70;64.90
79571;DHT22;69034;49.444;7.758;2023-08-07T00:19:20;15.70;64.90
79571;DHT22;69034;49.444;7.758;2023-08-07T00:23:21;15.70;64.80
79571;DHT22;69034;49.444;7.758;2023-08-07T00:27:22;15.60;64.90
79571;DHT22;69034;49.444;7.758;2023-08-07T00:31:22;15.60;65.00
79571;DHT22;69034;49.444;7.758;2023-08-07T00:35:23;15.60;64.90
79571;DHT22;69034;49.444;7.758;2023-08-07T00:39:24;15.60;64.80
79571;DHT22;69034;49.444;7.758;2023-08-07T00:43:24;15.60;64.80
79571;DHT22;69034;49.444;7.758;2023-08-07T00:47:26;15.50;64.80
79571;DHT22;69034;49.444;7.758;2023-08-07T00:51:26;15.50;64.90
79571;DHT22;69034;49.444;7.758;2023-08-07T00:55:29;15.60;64.90
79571;DHT22;69034;49.444;7.758;2023-08-07T00:59:30;15.70;64.80
79571;DHT22;69034;49.444;7.758;2023-08-07T01:03:30;15.80;64.60
79571;DHT22;69034;49.444;7.758;2023-08-07T01:07:31;15.90;64.40
79571;DHT22;69034;49.444;7.758;2023-08-07T01:11:45;16.00;64.30
79571;DHT22;69034;49.444;7.758;2023-08-07T01:15:49;16.00;64.20
79571;DHT22;69034;49.444;7.758;2023-08-07T01:19:52;16.00;64.00
79571;DHT22;69034;49.444;7.758;2023-08-07T01:23:53;16.00;63.90
79571;DHT22;69034;49.444;7.758;2023-08-07T01:32:00;16.10;63.90
79571;DHT22;69034;49.444;7.758;2023-08-07T01:36:05;16.10;63.80
79571;DHT22;69034;49.444;7.758;2023-08-07T01:40:09;16.00;63.60
79571;DHT22;69034;49.444;7.758;2023-08-07T01:44:10;16.00;63.70
79571;DHT22;69034;49.444;7.758;2023-08-07T01:48:11;16.00;63.70
79571;DHT22;69034;49.444;7.758;2023-08-07T01:52:12;16.00;63.70
79571;DHT22;69034;49.444;7.758;2023-08-07T01:56:13;16.00;63.70
79571;DHT22;69034;49.444;7.758;2023-08-07T02:00:14;16.00;63.70
79571;DHT22;69034;49.444;7.758;2023-08-07T02:04:14;15.90;63.70
79571;DHT22;69034;49.444;7.758;2023-08-07T02:08:15;15.80;63.70
79571;DHT22;69034;49.444;7.758;2023-08-07T02:12:16;15.70;64.00
79571;DHT22;69034;49.444;7.758;2023-08-07T02:16:16;15.50;64.20
79571;DHT22;69034;49.444;7.758;2023-08-07T02:20:17;15.50;64.30
79571;DHT22;69034;49.444;7.758;2023-08-07T02:24:17;15.40;64.40
79571;DHT22;69034;49.444;7.758;2023-08-07T02:28:20;15.40;64.60
79571;DHT22;69034;49.444;7.758;2023-08-07T02:32:20;15.30;64.90
79571;DHT22;69034;49.444;7.758;2023-08-07T02:36:21;15.20;65.00
79571;DHT22;69034;49.444;7.758;2023-08-07T02:40:21;15.20;65.10
79571;DHT22;69034;49.444;7.758;2023-08-07T02:44:22;15.20;65.10
79571;DHT22;69034;49.444;7.758;2023-08-07T02:48:23;15.20;65.10
79571;DHT22;69034;49.444;7.758;2023-08-07T02:52:23;15.20;65.30
79571;DHT22;69034;49.444;7.758;2023-08-07T02:56:24;15.20;65.40
79571;DHT22;69034;49.444;7.758;2023-08-07T03:00:24;15.10;65.40
79571;DHT22;69034;49.444;7.758;2023-08-07T03:04:25;15.10;65.30
79571;DHT22;69034;49.444;7.758;2023-08-07T03:08:26;15.10;65.40
79571;DHT22;69034;49.444;7.758;2023-08-07T03:12:26;15.10;65.40
79571;DHT22;69034;49.444;7.758;2023-08-07T03:16:27;15.10;65.50
79571;DHT22;69034;49.444;7.758;2023-08-07T03:20:27;15.10;65.60
79571;DHT22;69034;49.444;7.758;2023-08-07T03:24:28;15.00;65.70
79571;DHT22;69034;49.444;7.758;2023-08-07T03:28:29;15.00;65.70
79571;DHT22;69034;49.444;7.758;2023-08-07T03:32:29;15.00;65.80
79571;DHT22;69034;49.444;7.758;2023-08-07T03:36:30;15.00;65.80
79571;DHT22;69034;49.444;7.758;2023-08-07T03:40:30;15.00;66.00
79571;DHT22;69034;49.444;7.758;2023-08-07T03:44:31;14.90;66.00
79571;DHT22;69034;49.444;7.758;2023-08-07T03:48:33;15.00;66.00
79571;DHT22;69034;49.444;7.758;2023-08-07T03:52:34;15.00;66.00
79571;DHT22;69034;49.444;7.758;2023-08-07T03:56:34;15.00;66.00
79571;DHT22;69034;49.444;7.758;2023-08-07T04:00:38;14.90;66.10
79571;DHT22;69034;49.444;7.758;2023-08-07T04:04:39;15.00;66.20
79571;DHT22;69034;49.444;7.758;2023-08-07T04:08:39;14.90;66.30
79571;DHT22;69034;49.444;7.758;2023-08-07T04:12:40;14.90;66.30
79571;DHT22;69034;49.444;7.758;2023-08-07T04:16:40;14.90;66.30
79571;DHT22;69034;49.444;7.758;2023-08-07T04:20:41;14.90;66.40
79571;DHT22;69034;49.444;7.758;2023-08-07T04:24:42;14.90;66.40
79571;DHT22;69034;49.444;7.758;2023-08-07T04:28:43;14.90;66.40
79571;DHT22;69034;49.444;7.758;2023-08-07T04:32:43;14.90;66.50
79571;DHT22;69034;49.444;7.758;2023-08-07T04:36:44;14.90;66.50
79571;DHT22;69034;49.444;7.758;2023-08-07T04:40:49;15.00;66.50
79571;DHT22;69034;49.444;7.758;2023-08-07T04:44:50;15.10;66.30
79571;DHT22;69034;49.444;7.758;2023-08-07T04:48:50;15.30;66.10
79571;DHT22;69034;49.444;7.758;2023-08-07T04:52:51;15.50;65.80
79571;DHT22;69034;49.444;7.758;2023-08-07T04:56:52;15.60;65.50
79571;DHT22;69034;49.444;7.758;2023-08-07T05:00:56;15.70;65.30
79571;DHT22;69034;49.444;7.758;2023-08-07T05:04:57;15.80;65.00
79571;DHT22;69034;49.444;7.758;2023-08-07T05:08:57;15.90;64.80
79571;DHT22;69034;49.444;7.758;2023-08-07T05:12:58;16.00;64.70
79571;DHT22;69034;49.444;7.758;2023-08-07T05:16:59;16.00;64.50
79571;DHT22;69034;49.444;7.758;2023-08-07T05:21:02;16.10;64.40
79571;DHT22;69034;49.444;7.758;2023-08-07T05:25:04;16.10;64.20
79571;DHT22;69034;49.444;7.758;2023-08-07T05:29:04;16.30;63.90
79571;DHT22;69034;49.444;7.758;2023-08-07T05:33:07;16.40;63.70
79571;DHT22;69034;49.444;7.758;2023-08-07T05:37:07;16.50;63.40
79571;DHT22;69034;49.444;7.758;2023-08-07T05:41:09;16.60;63.20
79571;DHT22;69034;49.444;7.758;2023-08-07T05:45:10;16.60;62.90
79571;DHT22;69034;49.444;7.758;2023-08-07T05:49:11;16.70;62.60
79571;DHT22;69034;49.444;7.758;2023-08-07T05:53:11;16.80;62.30
79571;DHT22;69034;49.444;7.758;2023-08-07T05:57:12;16.90;62.10
79571;DHT22;69034;49.444;7.758;2023-08-07T06:01:12;17.00;61.80
79571;DHT22;69034;49.444;7.758;2023-08-07T06:05:14;17.10;61.50
79571;DHT22;69034;49.444;7.758;2023-08-07T06:09:16;17.20;61.30
79571;DHT22;69034;49.444;7.758;2023-08-07T06:13:17;17.30;61.10
79571;DHT22;69034;49.444;7.758;2023-08-07T06:17:18;17.50;60.70
79571;DHT22;69034;49.444;7.758;2023-08-07T06:21:19;17.60;60.20
79571;DHT22;69034;49.444;7.758;2023-08-07T06:25:20;17.90;60.70
79571;DHT22;69034;49.444;7.758;2023-08-07T06:29:21;18.30;59.70
79571;DHT22;69034;49.444;7.758;2023-08-07T06:33:21;18.40;59.20
79571;DHT22;69034;49.444;7.758;2023-08-07T06:37:22;18.50;58.80
79571;DHT22;69034;49.444;7.758;2023-08-07T06:41:23;18.50;58.50
79571;DHT22;69034;49.444;7.758;2023-08-07T06:45:24;18.50;58.30
79571;DHT22;69034;49.444;7.758;2023-08-07T06:49:25;18.60;58.10
79571;DHT22;69034;49.444;7.758;2023-08-07T06:53:26;18.70;57.80
79571;DHT22;69034;49.444;7.758;2023-08-07T06:57:26;18.80;57.60
79571;DHT22;69034;49.444;7.758;2023-08-07T07:01:28;18.90;57.30
79571;DHT22;69034;49.444;7.758;2023-08-07T07:05:30;19.00;57.20
79571;DHT22;69034;49.444;7.758;2023-08-07T07:09:30;19.10;56.80
79571;DHT22;69034;49.444;7.758;2023-08-07T07:13:32;19.20;56.60
79571;DHT22;69034;49.444;7.758;2023-08-07T07:17:32;19.30;56.30
79571;DHT22;69034;49.444;7.758;2023-08-07T07:21:33;19.50;56.10
79571;DHT22;69034;49.444;7.758;2023-08-07T07:25:34;19.60;55.80
79571;DHT22;69034;49.444;7.758;2023-08-07T07:29:34;19.60;55.60
79571;DHT22;69034;49.444;7.758;2023-08-07T07:33:35;19.70;55.50
79571;DHT22;69034;49.444;7.758;2023-08-07T07:37:36;19.90;55.20
79571;DHT22;69034;49.444;7.758;2023-08-07T07:41:38;20.20;54.50
79571;DHT22;69034;49.444;7.758;2023-08-07T07:45:39;20.40;54.00
79571;DHT22;69034;49.444;7.758;2023-08-07T07:49:45;20.50;53.60
79571;DHT22;69034;49.444;7.758;2023-08-07T07:53:46;20.70;53.10
79571;DHT22;69034;49.444;7.758;2023-08-07T07:57:46;20.90;52.60
79571;DHT22;69034;49.444;7.758;2023-08-07T08:01:47;21.30;52.10
79571;DHT22;69034;49.444;7.758;2023-08-07T08:05:51;21.60;51.00
79571;DHT22;69034;49.444;7.758;2023-08-07T08:09:52;21.90;50.50
79571;DHT22;69034;49.444;7.758;2023-08-07T08:13:53;22.30;49.80
79571;DHT22;69034;49.444;7.758;2023-08-07T08:17:53;22.50;49.90
79571;DHT22;69034;49.444;7.758;2023-08-07T08:21:54;22.90;49.40
79571;DHT22;69034;49.444;7.758;2023-08-07T08:25:55;23.20;49.10
79571;DHT22;69034;49.444;7.758;2023-08-07T08:29:55;23.30;48.10
79571;DHT22;69034;49.444;7.758;2023-08-07T08:33:56;23.20;48.30
79571;DHT22;69034;49.444;7.758;2023-08-07T08:37:56;23.40;47.90
79571;DHT22;69034;49.444;7.758;2023-08-07T08:41:57;23.60;47.00
79571;DHT22;69034;49.444;7.758;2023-08-07T08:46:01;24.10;46.40
79571;DHT22;69034;49.444;7.758;2023-08-07T08:50:10;24.60;45.60
79571;DHT22;69034;49.444;7.758;2023-08-07T08:54:12;24.80;45.20
79571;DHT22;69034;49.444;7.758;2023-08-07T08:58:15;24.70;45.10
79571;DHT22;69034;49.444;7.758;2023-08-07T09:02:17;24.30;44.80
79571;DHT22;69034;49.444;7.758;2023-08-07T09:06:18;24.10;44.70
79571;DHT22;69034;49.444;7.758;2023-08-07T09:10:19;23.80;44.40
79571;DHT22;69034;49.444;7.758;2023-08-07T09:14:24;23.70;44.30
79571;DHT22;69034;49.444;7.758;2023-08-07T09:18:24;23.80;44.20
79571;DHT22;69034;49.444;7.758;2023-08-07T09:22:25;24.00;43.70
79571;DHT22;69034;49.444;7.758;2023-08-07T09:26:26;24.40;43.60
79571;DHT22;69034;49.444;7.758;2023-08-07T09:30:27;24.60;42.90
79571;DHT22;69034;49.444;7.758;2023-08-07T09:34:30;24.40;43.10
79571;DHT22;69034;49.444;7.758;2023-08-07T09:38:32;24.50;43.50
79571;DHT22;69034;49.444;7.758;2023-08-07T09:42:33;24.60;43.10
79571;DHT22;69034;49.444;7.758;2023-08-07T09:46:41;24.70;42.70
79571;DHT22;69034;49.444;7.758;2023-08-07T09:50:42;24.70;42.20
79571;DHT22;69034;49.444;7.758;2023-08-07T09:54:42;24.90;41.40
79571;DHT22;69034;49.444;7.758;2023-08-07T09:58:49;25.20;40.50
79571;DHT22;69034;49.444;7.758;2023-08-07T10:02:50;25.10;40.70
79571;DHT22;69034;49.444;7.758;2023-08-07T10:06:51;24.90;40.70
79571;DHT22;69034;49.444;7.758;2023-08-07T10:10:52;25.20;40.50
79571;DHT22;69034;49.444;7.758;2023-08-07T10:14:56;25.60;39.80
79571;DHT22;69034;49.444;7.758;2023-08-07T10:18:57;26.00;39.20
79571;DHT22;69034;49.444;7.758;2023-08-07T10:23:08;26.10;39.10
79571;DHT22;69034;49.444;7.758;2023-08-07T10:27:10;25.90;39.80
79571;DHT22;69034;49.444;7.758;2023-08-07T10:31:13;26.30;39.60
79571;DHT22;69034;49.444;7.758;2023-08-07T10:35:30;26.50;38.80
79571;DHT22;69034;49.444;7.758;2023-08-07T10:39:31;26.10;38.80
79571;DHT22;69034;49.444;7.758;2023-08-07T10:43:53;25.70;39.30
79571;DHT22;69034;49.444;7.758;2023-08-07T10:48:13;25.80;39.00
79571;DHT22;69034;49.444;7.758;2023-08-07T10:52:18;26.40;38.20
79571;DHT22;69034;49.444;7.758;2023-08-07T10:56:34;27.30;38.60
79571;DHT22;69034;49.444;7.758;2023-08-07T11:00:36;29.20;34.40
79571;DHT22;69034;49.444;7.758;2023-08-07T11:04:37;31.50;32.70
79571;DHT22;69034;49.444;7.758;2023-08-07T11:08:40;29.90;33.80
79571;DHT22;69034;49.444;7.758;2023-08-07T11:12:41;29.90;32.40
79571;DHT22;69034;49.444;7.758;2023-08-07T11:16:42;29.50;32.90
79571;DHT22;69034;49.444;7.758;2023-08-07T11:20:44;32.00;30.70
79571;DHT22;69034;49.444;7.758;2023-08-07T11:24:46;32.50;30.10
79571;DHT22;69034;49.444;7.758;2023-08-07T11:28:48;34.50;27.20
79571;DHT22;69034;49.444;7.758;2023-08-07T11:32:49;32.10;28.50
79571;DHT22;69034;49.444;7.758;2023-08-07T11:36:49;30.90;28.20
79571;DHT22;69034;49.444;7.758;2023-08-07T11:40:53;29.70;30.30
79571;DHT22;69034;49.444;7.758;2023-08-07T11:44:54;29.10;28.80
79571;DHT22;69034;49.444;7.758;2023-08-07T11:48:56;28.10;30.20
79571;DHT22;69034;49.444;7.758;2023-08-07T11:52:56;28.50;29.80
79571;DHT22;69034;49.444;7.758;2023-08-07T11:57:01;30.40;28.60
79571;DHT22;69034;49.444;7.758;2023-08-07T12:01:06;29.50;28.20
79571;DHT22;69034;49.444;7.758;2023-08-07T12:05:08;28.50;28.80
79571;DHT22;69034;49.444;7.758;2023-08-07T12:09:11;30.60;27.80
79571;DHT22;69034;49.444;7.758;2023-08-07T12:13:13;33.10;24.60
79571;DHT22;69034;49.444;7.758;2023-08-07T12:17:13;33.50;26.30
79571;DHT22;69034;49.444;7.758;2023-08-07T12:21:19;36.90;19.60
79571;DHT22;69034;49.444;7.758;2023-08-07T12:25:20;36.60;19.70
79571;DHT22;69034;49.444;7.758;2023-08-07T12:29:21;37.60;18.90
79571;DHT22;69034;49.444;7.758;2023-08-07T12:33:22;39.90;17.20
79571;DHT22;69034;49.444;7.758;2023-08-07T12:37:22;41.20;15.80
79571;DHT22;69034;49.444;7.758;2023-08-07T12:41:23;42.30;15.00
79571;DHT22;69034;49.444;7.758;2023-08-07T12:45:44;43.30;15.10
79571;DHT22;69034;49.444;7.758;2023-08-07T12:49:44;40.20;15.90
79571;DHT22;69034;49.444;7.758;2023-08-07T12:53:48;37.70;17.20
79571;DHT22;69034;49.444;7.758;2023-08-07T12:57:48;34.80;17.90
79571;DHT22;69034;49.444;7.758;2023-08-07T13:01:49;38.80;16.40
79571;DHT22;69034;49.444;7.758;2023-08-07T13:05:50;37.40;16.00
79571;DHT22;69034;49.444;7.758;2023-08-07T13:09:51;35.10;17.70
79571;DHT22;69034;49.444;7.758;2023-08-07T13:13:52;36.00;17.20
79571;DHT22;69034;49.444;7.758;2023-08-07T13:17:52;36.00;18.70
79571;DHT22;69034;49.444;7.758;2023-08-07T13:21:53;38.70;16.60
79571;DHT22;69034;49.444;7.758;2023-08-07T13:25:53;37.40;17.10
79571;DHT22;69034;49.444;7.758;2023-08-07T13:29:54;34.90;18.70
79571;DHT22;69034;49.444;7.758;2023-08-07T13:33:55;33.30;19.60
79571;DHT22;69034;49.444;7.758;2023-08-07T13:37:55;34.50;19.00
79571;DHT22;69034;49.444;7.758;2023-08-07T13:41:56;36.90;19.10
79571;DHT22;69034;49.444;7.758;2023-08-07T13:45:57;40.20;17.50
79571;DHT22;69034;49.444;7.758;2023-08-07T13:49:57;41.60;15.30
79571;DHT22;69034;49.444;7.758;2023-08-07T13:53:58;43.40;15.40
79571;DHT22;69034;49.444;7.758;2023-08-07T13:57:59;44.60;13.10
79571;DHT22;69034;49.444;7.758;2023-08-07T14:01:59;42.50;14.20
79571;DHT22;69034;49.444;7.758;2023-08-07T14:06:01;39.60;15.50
79571;DHT22;69034;49.444;7.758;2023-08-07T14:10:02;43.50;14.40
79571;DHT22;69034;49.444;7.758;2023-08-07T14:14:03;45.70;13.60
79571;DHT22;69034;49.444;7.758;2023-08-07T14:18:03;46.70;13.20
79571;DHT22;69034;49.444;7.758;2023-08-07T14:22:04;47.70;12.80
79571;DHT22;69034;49.444;7.758;2023-08-07T14:26:05;47.40;12.50
79571;DHT22;69034;49.444;7.758;2023-08-07T14:30:06;43.00;14.70
79571;DHT22;69034;49.444;7.758;2023-08-07T14:34:07;44.10;12.70
79571;DHT22;69034;49.444;7.758;2023-08-07T14:38:08;42.60;13.10
79571;DHT22;69034;49.444;7.758;2023-08-07T14:42:08;39.10;15.80
79571;DHT22;69034;49.444;7.758;2023-08-07T14:46:09;38.00;15.20
79571;DHT22;69034;49.444;7.758;2023-08-07T14:50:09;35.70;16.60
79571;DHT22;69034;49.444;7.758;2023-08-07T14:54:10;33.90;17.60
79571;DHT22;69034;49.444;7.758;2023-08-07T14:58:11;34.80;17.90
79571;DHT22;69034;49.444;7.758;2023-08-07T15:02:11;37.20;16.40
79571;DHT22;69034;49.444;7.758;2023-08-07T15:06:12;34.90;17.80
79571;DHT22;69034;49.444;7.758;2023-08-07T15:10:13;37.60;17.20
79571;DHT22;69034;49.444;7.758;2023-08-07T15:14:13;37.70;16.30
79571;DHT22;69034;49.444;7.758;2023-08-07T15:18:14;35.10;17.60
79571;DHT22;69034;49.444;7.758;2023-08-07T15:22:15;33.20;18.50
79571;DHT22;69034;49.444;7.758;2023-08-07T15:26:16;32.00;19.40
79571;DHT22;69034;49.444;7.758;2023-08-07T15:30:17;33.10;19.80
79571;DHT22;69034;49.444;7.758;2023-08-07T15:34:17;34.50;17.90
79571;DHT22;69034;49.444;7.758;2023-08-07T15:38:18;35.30;18.10
79571;DHT22;69034;49.444;7.758;2023-08-07T15:42:18;37.50;16.40
79571;DHT22;69034;49.444;7.758;2023-08-07T15:46:19;38.20;15.90
79571;DHT22;69034;49.444;7.758;2023-08-07T15:50:20;35.30;17.70
79571;DHT22;69034;49.444;7.758;2023-08-07T15:54:20;34.30;18.70
79571;DHT22;69034;49.444;7.758;2023-08-07T15:58:21;36.90;17.00
79571;DHT22;69034;49.444;7.758;2023-08-07T16:02:23;35.80;17.80
79571;DHT22;69034;49.444;7.758;2023-08-07T16:06:23;34.00;18.90
79571;DHT22;69034;49.444;7.758;2023-08-07T16:10:24;32.60;19.60
79571;DHT22;69034;49.444;7.758;2023-08-07T16:14:27;31.40;24.50
79571;DHT22;69034;49.444;7.758;2023-08-07T16:18:28;30.60;25.10
79571;DHT22;69034;49.444;7.758;2023-08-07T16:22:29;30.30;25.50
79571;DHT22;69034;49.444;7.758;2023-08-07T16:26:30;30.40;25.60
79571;DHT22;69034;49.444;7.758;2023-08-07T16:30:30;30.50;25.60
79571;DHT22;69034;49.444;7.758;2023-08-07T16:34:31;31.80;24.90
79571;DHT22;69034;49.444;7.758;2023-08-07T16:38:31;33.90;24.00
79571;DHT22;69034;49.444;7.758;2023-08-07T16:42:32;34.80;19.70
79571;DHT22;69034;49.444;7.758;2023-08-07T16:46:33;33.60;24.40
79571;DHT22;69034;49.444;7.758;2023-08-07T16:50:33;32.60;25.00
79571;DHT22;69034;49.444;7.758;2023-08-07T16:54:34;31.50;25.70
79571;DHT22;69034;49.444;7.758;2023-08-07T16:58:35;30.70;26.40
79571;DHT22;69034;49.444;7.758;2023-08-07T17:02:37;30.00;27.00
79571;DHT22;69034;49.444;7.758;2023-08-07T17:06:37;29.50;27.70
79571;DHT22;69034;49.444;7.758;2023-08-07T17:10:38;29.10;28.10
79571;DHT22;69034;49.444;7.758;2023-08-07T17:14:39;29.20;28.40
79571;DHT22;69034;49.444;7.758;2023-08-07T17:18:39;30.10;27.90
79571;DHT22;69034;49.444;7.758;2023-08-07T17:22:40;31.30;27.40
79571;DHT22;69034;49.444;7.758;2023-08-07T17:26:40;31.20;27.70
79571;DHT22;69034;49.444;7.758;2023-08-07T17:30:41;30.90;27.90
79571;DHT22;69034;49.444;7.758;2023-08-07T17:34:42;30.50;28.40
79571;DHT22;69034;49.444;7.758;2023-08-07T17:38:42;29.80;29.00
79571;DHT22;69034;49.444;7.758;2023-08-07T17:42:43;29.20;29.70
79571;DHT22;69034;49.444;7.758;2023-08-07T17:46:43;28.50;30.40
79571;DHT22;69034;49.444;7.758;2023-08-07T17:50:44;28.00;30.80
79571;DHT22;69034;49.444;7.758;2023-08-07T17:54:45;27.60;31.20
79571;DHT22;69034;49.444;7.758;2023-08-07T17:58:50;27.30;31.60
79571;DHT22;69034;49.444;7.758;2023-08-07T18:02:53;27.00;32.20
79571;DHT22;69034;49.444;7.758;2023-08-07T18:06:54;26.80;32.40
79571;DHT22;69034;49.444;7.758;2023-08-07T18:10:54;26.50;32.60
79571;DHT22;69034;49.444;7.758;2023-08-07T18:14:55;26.30;32.80
79571;DHT22;69034;49.444;7.758;2023-08-07T18:18:57;26.40;32.60
79571;DHT22;69034;49.444;7.758;2023-08-07T18:22:58;26.40;32.70
79571;DHT22;69034;49.444;7.758;2023-08-07T18:26:59;26.10;33.00
79571;DHT22;69034;49.444;7.758;2023-08-07T18:31:02;25.80;33.30
79571;DHT22;69034;49.444;7.758;2023-08-07T18:35:03;25.50;33.60
79571;DHT22;69034;49.444;7.758;2023-08-07T18:39:04;25.10;34.00
79571;DHT22;69034;49.444;7.758;2023-08-07T18:43:05;24.80;34.30
79571;DHT22;69034;49.444;7.758;2023-08-07T18:47:06;24.40;34.70
79571;DHT22;69034;49.444;7.758;2023-08-07T18:51:06;24.10;35.00
79571;DHT22;69034;49.444;7.758;2023-08-07T18:55:08;23.90;35.20
79571;DHT22;69034;49.444;7.758;2023-08-07T18:59:09;23.60;35.60
79571;DHT22;69034;49.444;7.758;2023-08-07T19:03:09;23.30;36.00
79571;DHT22;69034;49.444;7.758;2023-08-07T19:07:10;23.10;36.50
79571;DHT22;69034;49.444;7.758;2023-08-07T19:11:11;22.90;36.60
79571;DHT22;69034;49.444;7.758;2023-08-07T19:15:11;22.70;37.00
79571;DHT22;69034;49.444;7.758;2023-08-07T19:19:13;22.50;37.10
79571;DHT22;69034;49.444;7.758;2023-08-07T19:23:15;22.40;37.40
79571;DHT22;69034;49.444;7.758;2023-08-07T19:27:15;22.30;37.60
79571;DHT22;69034;49.444;7.758;2023-08-07T19:31:16;22.20;37.80
79571;DHT22;69034;49.444;7.758;2023-08-07T19:35:17;22.10;38.00
79571;DHT22;69034;49.444;7.758;2023-08-07T19:39:18;22.00;38.20
79571;DHT22;69034;49.444;7.758;2023-08-07T19:43:19;21.90;38.50
79571;DHT22;69034;49.444;7.758;2023-08-07T19:47:20;21.80;38.90
79571;DHT22;69034;49.444;7.758;2023-08-07T19:51:21;21.70;39.10
79571;DHT22;69034;49.444;7.758;2023-08-07T19:55:21;21.50;39.40
79571;DHT22;69034;49.444;7.758;2023-08-07T19:59:35;21.40;39.60
79571;DHT22;69034;49.444;7.758;2023-08-07T20:03:36;21.40;40.00
79571;DHT22;69034;49.444;7.758;2023-08-07T20:07:37;21.40;40.10
79571;DHT22;69034;49.444;7.758;2023-08-07T20:11:37;21.50;40.30
79571;DHT22;69034;49.444;7.758;2023-08-07T20:15:38;21.50;40.40
79571;DHT22;69034;49.444;7.758;2023-08-07T20:19:39;21.40;40.60
79571;DHT22;69034;49.444;7.758;2023-08-07T20:23:40;21.40;41.40
79571;DHT22;69034;49.444;7.758;2023-08-07T20:27:40;21.50;41.30
79571;DHT22;69034;49.444;7.758;2023-08-07T20:31:41;21.40;41.50
79571;DHT22;69034;49.444;7.758;2023-08-07T20:35:42;21.20;41.60
79571;DHT22;69034;49.444;7.758;2023-08-07T20:39:42;21.10;41.80
79571;DHT22;69034;49.444;7.758;2023-08-07T20:43:43;21.00;42.00
79571;DHT22;69034;49.444;7.758;2023-08-07T20:47:45;21.00;42.40
79571;DHT22;69034;49.444;7.758;2023-08-07T20:51:45;21.00;42.40
79571;DHT22;69034;49.444;7.758;2023-08-07T20:55:46;20.90;42.70
79571;DHT22;69034;49.444;7.758;2023-08-07T20:59:46;20.80;43.00
79571;DHT22;69034;49.444;7.758;2023-08-07T21:03:47;20.70;43.20
79571;DHT22;69034;49.444;7.758;2023-08-07T21:07:48;20.60;43.30
79571;DHT22;69034;49.444;7.758;2023-08-07T21:11:49;20.50;43.60
79571;DHT22;69034;49.444;7.758;2023-08-07T21:15:49;20.50;44.00
79571;DHT22;69034;49.444;7.758;2023-08-07T21:19:50;20.50;44.10
79571;DHT22;69034;49.444;7.758;2023-08-07T21:23:51;20.40;44.10
79571;DHT22;69034;49.444;7.758;2023-08-07T21:27:52;20.30;44.40
79571;DHT22;69034;49.444;7.758;2023-08-07T21:31:52;20.10;44.60
79571;DHT22;69034;49.444;7.758;2023-08-07T21:35:53;20.00;45.00
79571;DHT22;69034;49.444;7.758;2023-08-07T21:39:53;19.80;45.20
79571;DHT22;69034;49.444;7.758;2023-08-07T21:43:54;19.70;45.60
79571;DHT22;69034;49.444;7.758;2023-08-07T21:47:55;19.60;46.00
79571;DHT22;69034;49.444;7.758;2023-08-07T21:51:55;19.40;46.40
79571;DHT22;69034;49.444;7.758;2023-08-07T21:55:56;19.30;46.70
79571;DHT22;69034;49.444;7.758;2023-08-07T21:59:56;19.20;47.10
79571;DHT22;69034;49.444;7.758;2023-08-07T22:03:57;19.00;47.30
79571;DHT22;69034;49.444;7.758;2023-08-07T22:07:58;18.90;47.60
79571;DHT22;69034;49.444;7.758;2023-08-07T22:12:00;18.80;47.80
79571;DHT22;69034;49.444;7.758;2023-08-07T22:16:02;18.70;48.10
79571;DHT22;69034;49.444;7.758;2023-08-07T22:20:03;18.70;48.40
79571;DHT22;69034;49.444;7.758;2023-08-07T22:24:04;18.60;48.40
79571;DHT22;69034;49.444;7.758;2023-08-07T22:28:06;18.50;48.60
79571;DHT22;69034;49.444;7.758;2023-08-07T22:32:07;18.40;48.80
79571;DHT22;69034;49.444;7.758;2023-08-07T22:36:08;18.30;49.20
79571;DHT22;69034;49.444;7.758;2023-08-07T22:40:11;18.20;49.50
79571;DHT22;69034;49.444;7.758;2023-08-07T22:44:12;18.10;49.80
79571;DHT22;69034;49.444;7.758;2023-08-07T22:48:13;18.00;50.30
79571;DHT22;69034;49.444;7.758;2023-08-07T22:52:13;17.90;50.60
79571;DHT22;69034;49.444;7.758;2023-08-07T22:56:14;17.90;50.90
79571;DHT22;69034;49.444;7.758;2023-08-07T23:00:15;17.80;51.00
79571;DHT22;69034;49.444;7.758;2023-08-07T23:04:15;17.70;51.40
79571;DHT22;69034;49.444;7.758;2023-08-07T23:08:16;17.60;51.70
79571;DHT22;69034;49.444;7.758;2023-08-07T23:12:17;17.60;51.80
79571;DHT22;69034;49.444;7.758;2023-08-07T23:16:17;17.60;51.90
79571;DHT22;69034;49.444;7.758;2023-08-07T23:20:18;17.70;51.80
79571;DHT22;69034;49.444;7.758;2023-08-07T23:24:18;17.90;51.70
79571;DHT22;69034;49.444;7.758;2023-08-07T23:28:19;18.00;51.60
79571;DHT22;69034;49.444;7.758;2023-08-07T23:32:20;18.10;51.50
79571;DHT22;69034;49.444;7.758;2023-08-07T23:36:20;18.10;51.50
79571;DHT22;69034;49.444;7.758;2023-08-07T23:40:21;18.20;51.50
79571;DHT22;69034;49.444;7.758;2023-08-07T23:44:22;18.20;51.60
79571;DHT22;69034;49.444;7.758;2023-08-07T23:48:22;18.10;51.70
79571;DHT22;69034;49.444;7.758;2023-08-07T23:52:23;18.10;51.80
79571;DHT22;69034;49.444;7.758;2023-08-07T23:56:23;18.10;51.90
